sensor_id;sensor_type;location;lat;lon;timestamp;temperature;humidity
36498;DHT22;22513;51.222;6.480;2022-07-09T00:00:04;16.00;99.90
36498;DHT22;22513;51.222;6.480;2022-07-09T00:02:30;15.90;99.90
36498;DHT22;22513;51.222;6.480;2022-07-09T00:04:56;15.90;99.90
36498;DHT22;22513;51.222;6.480;2022-07-09T00:07:24;15.80;99.90
36498;DHT22;22513;51.222;6.480;2022-07-09T00:09:52;15.80;99.90
36498;DHT22;22513;51.222;6.480;2022-07-09T00:12:17;15.80;99.90
36498;DHT22;22513;51.222;6.480;2022-07-09T00:14:43;15.80;99.90
36498;DHT22;22513;51.222;6.480;2022-07-09T00:17:09;15.80;99.90
36498;DHT22;22513;51.222;6.480;2022-07-09T00:19:34;15.70;99.90
36498;DHT22;22513;51.222;6.480;2022-07-09T00:22:00;15.70;99.90
36498;DHT22;22513;51.222;6.480;2022-07-09T00:24:26;15.70;99.90
36498;DHT22;22513;51.222;6.480;2022-07-09T00:26:52;15.60;99.90
36498;DHT22;22513;51.222;6.480;2022-07-09T00:29:17;15.50;99.90
36498;DHT22;22513;51.222;6.480;2022-07-09T00:31:43;15.50;99.90
36498;DHT22;22513;51.222;6.480;2022-07-09T00:34:11;15.50;99.90
36498;DHT22;22513;51.222;6.480;2022-07-09T00:36:37;15.40;99.90
36498;DHT22;22513;51.222;6.480;2022-07-09T00:39:03;15.40;99.90
36498;DHT22;22513;51.222;6.480;2022-07-09T00:41:28;15.40;99.90
36498;DHT22;22513;51.222;6.480;2022-07-09T00:43:54;15.40;99.90
36498;DHT22;22513;51.222;6.480;2022-07-09T00:46:20;15.40;99.90
36498;DHT22;22513;51.222;6.480;2022-07-09T00:48:45;15.30;99.90
36498;DHT22;22513;51.222;6.480;2022-07-09T00:51:16;15.30;99.90
36498;DHT22;22513;51.222;6.480;2022-07-09T00:53:42;15.40;99.90
36498;DHT22;22513;51.222;6.480;2022-07-09T00:56:10;15.40;99.90
36498;DHT22;22513;51.222;6.480;2022-07-09T00:58:37;15.40;99.90
36498;DHT22;22513;51.222;6.480;2022-07-09T01:01:03;15.40;99.90
36498;DHT22;22513;51.222;6.480;2022-07-09T01:03:29;15.40;99.90
36498;DHT22;22513;51.222;6.480;2022-07-09T01:05:55;15.40;99.90
36498;DHT22;22513;51.222;6.480;2022-07-09T01:08:22;15.40;99.90
36498;DHT22;22513;51.222;6.480;2022-07-09T01:10:48;15.40;99.90
36498;DHT22;22513;51.222;6.480;2022-07-09T01:13:15;15.40;99.90
36498;DHT22;22513;51.222;6.480;2022-07-09T01:15:41;15.40;99.90
36498;DHT22;22513;51.222;6.480;2022-07-09T01:18:10;15.40;99.90
36498;DHT22;22513;51.222;6.480;2022-07-09T01:20:36;15.40;99.90
36498;DHT22;22513;51.222;6.480;2022-07-09T01:23:02;15.40;99.90
36498;DHT22;22513;51.222;6.480;2022-07-09T01:25:35;15.30;99.90
36498;DHT22;22513;51.222;6.480;2022-07-09T01:28:02;15.40;99.90
36498;DHT22;22513;51.222;6.480;2022-07-09T01:30:30;15.40;99.90
36498;DHT22;22513;51.222;6.480;2022-07-09T01:32:56;15.40;99.90
36498;DHT22;22513;51.222;6.480;2022-07-09T01:35:21;15.40;99.90
36498;DHT22;22513;51.222;6.480;2022-07-09T01:37:47;15.40;99.90
36498;DHT22;22513;51.222;6.480;2022-07-09T01:40:13;15.40;99.90
36498;DHT22;22513;51.222;6.480;2022-07-09T01:42:39;15.40;99.90
36498;DHT22;22513;51.222;6.480;2022-07-09T01:45:06;15.40;99.90
36498;DHT22;22513;51.222;6.480;2022-07-09T01:47:31;15.40;99.90
36498;DHT22;22513;51.222;6.480;2022-07-09T01:49:57;15.40;99.90
36498;DHT22;22513;51.222;6.480;2022-07-09T01:52:23;15.40;99.90
36498;DHT22;22513;51.222;6.480;2022-07-09T01:54:49;15.40;99.90
36498;DHT22;22513;51.222;6.480;2022-07-09T01:57:14;15.40;99.90
36498;DHT22;22513;51.222;6.480;2022-07-09T01:59:40;15.40;99.90
36498;DHT22;22513;51.222;6.480;2022-07-09T02:02:06;15.40;99.90
36498;DHT22;22513;51.222;6.480;2022-07-09T02:04:31;15.30;99.90
36498;DHT22;22513;51.222;6.480;2022-07-09T02:06:57;15.30;99.90
36498;DHT22;22513;51.222;6.480;2022-07-09T02:09:23;15.20;99.90
36498;DHT22;22513;51.222;6.480;2022-07-09T02:11:49;15.20;99.90
36498;DHT22;22513;51.222;6.480;2022-07-09T02:14:15;15.20;99.90
36498;DHT22;22513;51.222;6.480;2022-07-09T02:16:41;15.10;99.90
36498;DHT22;22513;51.222;6.480;2022-07-09T02:19:07;15.20;99.90
36498;DHT22;22513;51.222;6.480;2022-07-09T02:21:33;15.20;99.90
36498;DHT22;22513;51.222;6.480;2022-07-09T02:23:58;15.10;99.90
36498;DHT22;22513;51.222;6.480;2022-07-09T02:26:27;15.10;99.90
36498;DHT22;22513;51.222;6.480;2022-07-09T02:28:58;15.10;99.90
36498;DHT22;22513;51.222;6.480;2022-07-09T02:31:24;15.00;99.90
36498;DHT22;22513;51.222;6.480;2022-07-09T02:33:51;15.00;99.90
36498;DHT22;22513;51.222;6.480;2022-07-09T02:36:16;14.90;99.90
36498;DHT22;22513;51.222;6.480;2022-07-09T02:38:42;14.90;99.90
36498;DHT22;22513;51.222;6.480;2022-07-09T02:41:07;14.90;99.90
36498;DHT22;22513;51.222;6.480;2022-07-09T02:43:33;14.90;99.90
36498;DHT22;22513;51.222;6.480;2022-07-09T02:45:59;14.80;99.90
36498;DHT22;22513;51.222;6.480;2022-07-09T02:48:25;14.80;99.90
36498;DHT22;22513;51.222;6.480;2022-07-09T02:50:53;14.80;99.90
36498;DHT22;22513;51.222;6.480;2022-07-09T02:53:20;14.80;99.90
36498;DHT22;22513;51.222;6.480;2022-07-09T02:55:45;14.80;99.90
36498;DHT22;22513;51.222;6.480;2022-07-09T02:58:11;14.80;99.90
36498;DHT22;22513;51.222;6.480;2022-07-09T03:00:37;14.90;99.90
36498;DHT22;22513;51.222;6.480;2022-07-09T03:03:05;14.80;99.90
36498;DHT22;22513;51.222;6.480;2022-07-09T03:05:31;14.80;99.90
36498;DHT22;22513;51.222;6.480;2022-07-09T03:07:57;14.80;99.90
36498;DHT22;22513;51.222;6.480;2022-07-09T03:10:23;14.70;99.90
36498;DHT22;22513;51.222;6.480;2022-07-09T03:12:48;14.70;99.90
36498;DHT22;22513;51.222;6.480;2022-07-09T03:15:14;14.70;99.90
36498;DHT22;22513;51.222;6.480;2022-07-09T03:17:42;14.70;99.90
36498;DHT22;22513;51.222;6.480;2022-07-09T03:20:08;14.70;99.90
36498;DHT22;22513;51.222;6.480;2022-07-09T03:22:34;14.70;99.90
36498;DHT22;22513;51.222;6.480;2022-07-09T03:25:01;14.70;99.90
36498;DHT22;22513;51.222;6.480;2022-07-09T03:27:26;14.60;99.90
36498;DHT22;22513;51.222;6.480;2022-07-09T03:29:52;14.70;99.90
36498;DHT22;22513;51.222;6.480;2022-07-09T03:32:18;14.70;99.90
36498;DHT22;22513;51.222;6.480;2022-07-09T03:34:43;14.70;99.90
36498;DHT22;22513;51.222;6.480;2022-07-09T03:37:09;14.60;99.90
36498;DHT22;22513;51.222;6.480;2022-07-09T03:39:34;14.60;99.90
36498;DHT22;22513;51.222;6.480;2022-07-09T03:42:00;14.60;99.90
36498;DHT22;22513;51.222;6.480;2022-07-09T03:44:26;14.60;99.90
36498;DHT22;22513;51.222;6.480;2022-07-09T03:46:52;14.60;99.90
36498;DHT22;22513;51.222;6.480;2022-07-09T03:49:17;14.60;99.90
36498;DHT22;22513;51.222;6.480;2022-07-09T03:51:43;14.60;99.90
36498;DHT22;22513;51.222;6.480;2022-07-09T03:54:09;14.60;99.90
36498;DHT22;22513;51.222;6.480;2022-07-09T03:56:35;14.60;99.90
36498;DHT22;22513;51.222;6.480;2022-07-09T03:59:01;14.70;99.90
36498;DHT22;22513;51.222;6.480;2022-07-09T04:01:26;14.70;99.90
36498;DHT22;22513;51.222;6.480;2022-07-09T04:03:52;14.70;99.90
36498;DHT22;22513;51.222;6.480;2022-07-09T04:06:18;14.80;99.90
36498;DHT22;22513;51.222;6.480;2022-07-09T04:08:43;15.10;99.90
36498;DHT22;22513;51.222;6.480;2022-07-09T04:11:09;15.40;99.90
36498;DHT22;22513;51.222;6.480;2022-07-09T04:13:35;15.70;99.90
36498;DHT22;22513;51.222;6.480;2022-07-09T04:16:00;16.00;99.90
36498;DHT22;22513;51.222;6.480;2022-07-09T04:18:26;16.20;99.90
36498;DHT22;22513;51.222;6.480;2022-07-09T04:20:52;16.50;99.90
36498;DHT22;22513;51.222;6.480;2022-07-09T04:23:20;16.80;99.90
36498;DHT22;22513;51.222;6.480;2022-07-09T04:25:45;17.10;99.90
36498;DHT22;22513;51.222;6.480;2022-07-09T04:28:13;17.60;99.90
36498;DHT22;22513;51.222;6.480;2022-07-09T04:30:39;18.20;99.90
36498;DHT22;22513;51.222;6.480;2022-07-09T04:33:05;18.80;99.90
36498;DHT22;22513;51.222;6.480;2022-07-09T04:35:31;19.50;99.90
36498;DHT22;22513;51.222;6.480;2022-07-09T04:37:57;20.10;99.90
36498;DHT22;22513;51.222;6.480;2022-07-09T04:40:22;20.80;99.90
36498;DHT22;22513;51.222;6.480;2022-07-09T04:42:48;21.40;99.90
36498;DHT22;22513;51.222;6.480;2022-07-09T04:45:14;22.10;99.90
36498;DHT22;22513;51.222;6.480;2022-07-09T04:47:40;22.80;99.90
36498;DHT22;22513;51.222;6.480;2022-07-09T04:50:06;23.50;99.90
36498;DHT22;22513;51.222;6.480;2022-07-09T04:52:32;24.40;99.90
36498;DHT22;22513;51.222;6.480;2022-07-09T04:54:58;25.00;99.90
36498;DHT22;22513;51.222;6.480;2022-07-09T04:57:23;25.50;99.90
36498;DHT22;22513;51.222;6.480;2022-07-09T04:59:49;25.90;99.90
36498;DHT22;22513;51.222;6.480;2022-07-09T05:02:14;26.30;99.10
36498;DHT22;22513;51.222;6.480;2022-07-09T05:04:40;26.80;98.20
36498;DHT22;22513;51.222;6.480;2022-07-09T05:07:06;27.20;97.30
36498;DHT22;22513;51.222;6.480;2022-07-09T05:09:31;27.70;97.00
36498;DHT22;22513;51.222;6.480;2022-07-09T05:11:57;28.30;95.80
36498;DHT22;22513;51.222;6.480;2022-07-09T05:14:23;28.80;94.70
36498;DHT22;22513;51.222;6.480;2022-07-09T05:16:48;29.30;93.30
36498;DHT22;22513;51.222;6.480;2022-07-09T05:19:14;29.70;91.30
36498;DHT22;22513;51.222;6.480;2022-07-09T05:21:40;29.80;90.70
36498;DHT22;22513;51.222;6.480;2022-07-09T05:24:06;29.90;88.20
36498;DHT22;22513;51.222;6.480;2022-07-09T05:26:33;30.10;88.10
36498;DHT22;22513;51.222;6.480;2022-07-09T05:28:59;30.30;85.00
36498;DHT22;22513;51.222;6.480;2022-07-09T05:31:25;30.30;83.70
36498;DHT22;22513;51.222;6.480;2022-07-09T05:33:51;30.50;83.60
36498;DHT22;22513;51.222;6.480;2022-07-09T05:36:17;31.00;81.40
36498;DHT22;22513;51.222;6.480;2022-07-09T05:38:44;31.30;78.20
36498;DHT22;22513;51.222;6.480;2022-07-09T05:41:09;31.40;76.90
36498;DHT22;22513;51.222;6.480;2022-07-09T05:43:36;31.60;75.30
36498;DHT22;22513;51.222;6.480;2022-07-09T05:46:01;31.80;73.90
36498;DHT22;22513;51.222;6.480;2022-07-09T05:48:27;31.90;72.70
36498;DHT22;22513;51.222;6.480;2022-07-09T05:50:53;32.20;71.00
36498;DHT22;22513;51.222;6.480;2022-07-09T05:53:20;32.60;70.10
36498;DHT22;22513;51.222;6.480;2022-07-09T05:55:46;32.80;67.70
36498;DHT22;22513;51.222;6.480;2022-07-09T05:58:12;33.20;66.10
36498;DHT22;22513;51.222;6.480;2022-07-09T06:00:37;33.60;64.60
36498;DHT22;22513;51.222;6.480;2022-07-09T06:03:03;33.70;61.80
36498;DHT22;22513;51.222;6.480;2022-07-09T06:05:28;33.40;60.40
36498;DHT22;22513;51.222;6.480;2022-07-09T06:07:54;32.80;60.60
36498;DHT22;22513;51.222;6.480;2022-07-09T06:10:20;32.30;62.00
36498;DHT22;22513;51.222;6.480;2022-07-09T06:12:46;32.30;62.60
36498;DHT22;22513;51.222;6.480;2022-07-09T06:15:11;32.60;61.20
36498;DHT22;22513;51.222;6.480;2022-07-09T06:17:37;32.90;59.80
36498;DHT22;22513;51.222;6.480;2022-07-09T06:20:04;33.50;59.20
36498;DHT22;22513;51.222;6.480;2022-07-09T06:22:30;33.60;57.00
36498;DHT22;22513;51.222;6.480;2022-07-09T06:24:56;33.20;56.30
36498;DHT22;22513;51.222;6.480;2022-07-09T06:27:21;32.70;56.50
36498;DHT22;22513;51.222;6.480;2022-07-09T06:29:47;32.10;57.10
36498;DHT22;22513;51.222;6.480;2022-07-09T06:32:13;31.30;58.40
36498;DHT22;22513;51.222;6.480;2022-07-09T06:34:38;30.70;60.20
36498;DHT22;22513;51.222;6.480;2022-07-09T06:37:04;30.90;62.50
36498;DHT22;22513;51.222;6.480;2022-07-09T06:39:30;31.60;62.00
36498;DHT22;22513;51.222;6.480;2022-07-09T06:42:12;32.30;60.40
36498;DHT22;22513;51.222;6.480;2022-07-09T06:44:38;33.30;57.90
36498;DHT22;22513;51.222;6.480;2022-07-09T06:47:04;34.10;56.20
36498;DHT22;22513;51.222;6.480;2022-07-09T06:49:30;34.80;54.40
36498;DHT22;22513;51.222;6.480;2022-07-09T06:51:56;35.20;54.00
36498;DHT22;22513;51.222;6.480;2022-07-09T06:54:22;35.70;52.30
36498;DHT22;22513;51.222;6.480;2022-07-09T06:56:48;35.90;51.00
36498;DHT22;22513;51.222;6.480;2022-07-09T06:59:14;36.00;49.60
36498;DHT22;22513;51.222;6.480;2022-07-09T07:01:39;35.30;49.30
36498;DHT22;22513;51.222;6.480;2022-07-09T07:04:06;34.90;50.30
36498;DHT22;22513;51.222;6.480;2022-07-09T07:06:31;34.60;50.30
36498;DHT22;22513;51.222;6.480;2022-07-09T07:08:57;34.20;51.40
36498;DHT22;22513;51.222;6.480;2022-07-09T07:11:23;34.00;52.10
36498;DHT22;22513;51.222;6.480;2022-07-09T07:13:48;34.10;51.10
36498;DHT22;22513;51.222;6.480;2022-07-09T07:16:14;34.00;51.10
36498;DHT22;22513;51.222;6.480;2022-07-09T07:18:40;34.00;51.30
36498;DHT22;22513;51.222;6.480;2022-07-09T07:21:05;34.00;50.30
36498;DHT22;22513;51.222;6.480;2022-07-09T07:23:31;33.70;50.90
36498;DHT22;22513;51.222;6.480;2022-07-09T07:26:00;32.80;50.90
36498;DHT22;22513;51.222;6.480;2022-07-09T07:28:26;32.10;52.30
36498;DHT22;22513;51.222;6.480;2022-07-09T07:30:52;31.70;53.00
36498;DHT22;22513;51.222;6.480;2022-07-09T07:33:18;31.60;53.10
36498;DHT22;22513;51.222;6.480;2022-07-09T07:35:44;31.80;53.00
36498;DHT22;22513;51.222;6.480;2022-07-09T07:38:10;32.20;53.50
36498;DHT22;22513;51.222;6.480;2022-07-09T07:40:36;32.70;52.70
36498;DHT22;22513;51.222;6.480;2022-07-09T07:43:02;33.20;52.60
36498;DHT22;22513;51.222;6.480;2022-07-09T07:45:28;34.10;50.20
36498;DHT22;22513;51.222;6.480;2022-07-09T07:47:54;34.30;48.40
36498;DHT22;22513;51.222;6.480;2022-07-09T07:50:21;33.90;48.20
36498;DHT22;22513;51.222;6.480;2022-07-09T07:52:46;33.40;48.70
36498;DHT22;22513;51.222;6.480;2022-07-09T07:55:12;32.80;48.90
36498;DHT22;22513;51.222;6.480;2022-07-09T07:57:38;32.20;50.20
36498;DHT22;22513;51.222;6.480;2022-07-09T08:00:04;32.00;51.10
36498;DHT22;22513;51.222;6.480;2022-07-09T08:02:30;32.00;51.30
36498;DHT22;22513;51.222;6.480;2022-07-09T08:04:56;31.90;52.00
36498;DHT22;22513;51.222;6.480;2022-07-09T08:07:22;32.20;52.40
36498;DHT22;22513;51.222;6.480;2022-07-09T08:09:48;32.60;51.20
36498;DHT22;22513;51.222;6.480;2022-07-09T08:12:13;32.90;50.20
36498;DHT22;22513;51.222;6.480;2022-07-09T08:14:39;32.90;50.20
36498;DHT22;22513;51.222;6.480;2022-07-09T08:17:05;33.20;50.30
36498;DHT22;22513;51.222;6.480;2022-07-09T08:19:30;33.70;49.00
36498;DHT22;22513;51.222;6.480;2022-07-09T08:21:56;34.10;48.90
36498;DHT22;22513;51.222;6.480;2022-07-09T08:24:22;34.40;48.20
36498;DHT22;22513;51.222;6.480;2022-07-09T08:26:47;34.60;47.00
36498;DHT22;22513;51.222;6.480;2022-07-09T08:29:13;34.70;47.10
36498;DHT22;22513;51.222;6.480;2022-07-09T08:31:39;34.80;46.70
36498;DHT22;22513;51.222;6.480;2022-07-09T08:34:04;34.80;46.30
36498;DHT22;22513;51.222;6.480;2022-07-09T08:36:30;34.70;46.50
36498;DHT22;22513;51.222;6.480;2022-07-09T08:38:56;34.20;46.60
36498;DHT22;22513;51.222;6.480;2022-07-09T08:41:23;33.50;47.30
36498;DHT22;22513;51.222;6.480;2022-07-09T08:43:53;32.70;48.50
36498;DHT22;22513;51.222;6.480;2022-07-09T08:46:19;32.40;49.60
36498;DHT22;22513;51.222;6.480;2022-07-09T08:48:45;32.20;49.80
36498;DHT22;22513;51.222;6.480;2022-07-09T08:51:11;32.20;49.90
36498;DHT22;22513;51.222;6.480;2022-07-09T08:53:42;32.00;50.10
36498;DHT22;22513;51.222;6.480;2022-07-09T08:56:09;32.00;50.80
36498;DHT22;22513;51.222;6.480;2022-07-09T08:58:35;32.00;50.70
36498;DHT22;22513;51.222;6.480;2022-07-09T09:01:00;32.00;50.80
36498;DHT22;22513;51.222;6.480;2022-07-09T09:03:26;32.20;52.00
36498;DHT22;22513;51.222;6.480;2022-07-09T09:06:05;32.50;51.10
36498;DHT22;22513;51.222;6.480;2022-07-09T09:08:41;32.50;50.20
36498;DHT22;22513;51.222;6.480;2022-07-09T09:11:20;32.30;50.40
36498;DHT22;22513;51.222;6.480;2022-07-09T09:13:48;32.00;50.00
36498;DHT22;22513;51.222;6.480;2022-07-09T09:16:15;31.80;50.50
36498;DHT22;22513;51.222;6.480;2022-07-09T09:18:49;31.60;50.50
36498;DHT22;22513;51.222;6.480;2022-07-09T09:21:16;31.40;50.40
36498;DHT22;22513;51.222;6.480;2022-07-09T09:23:47;31.10;51.40
36498;DHT22;22513;51.222;6.480;2022-07-09T09:26:18;30.80;51.20
36498;DHT22;22513;51.222;6.480;2022-07-09T09:29:05;30.70;51.10
36498;DHT22;22513;51.222;6.480;2022-07-09T09:31:33;30.80;51.30
36498;DHT22;22513;51.222;6.480;2022-07-09T09:34:17;30.70;51.00
36498;DHT22;22513;51.222;6.480;2022-07-09T09:36:52;30.50;50.50
36498;DHT22;22513;51.222;6.480;2022-07-09T09:39:28;30.40;50.50
36498;DHT22;22513;51.222;6.480;2022-07-09T09:41:59;30.00;51.10
36498;DHT22;22513;51.222;6.480;2022-07-09T09:44:27;29.50;52.10
36498;DHT22;22513;51.222;6.480;2022-07-09T09:46:55;29.10;53.00
36498;DHT22;22513;51.222;6.480;2022-07-09T09:49:21;28.60;53.80
36498;DHT22;22513;51.222;6.480;2022-07-09T09:52:05;28.30;54.30
36498;DHT22;22513;51.222;6.480;2022-07-09T09:54:40;28.30;55.20
36498;DHT22;22513;51.222;6.480;2022-07-09T09:57:11;28.40;55.20
36498;DHT22;22513;51.222;6.480;2022-07-09T09:59:40;28.40;55.00
36498;DHT22;22513;51.222;6.480;2022-07-09T10:02:07;28.50;55.30
36498;DHT22;22513;51.222;6.480;2022-07-09T10:04:36;28.50;55.50
36498;DHT22;22513;51.222;6.480;2022-07-09T10:07:06;28.70;55.80
36498;DHT22;22513;51.222;6.480;2022-07-09T10:09:31;28.90;55.70
36498;DHT22;22513;51.222;6.480;2022-07-09T10:11:58;29.10;55.00
36498;DHT22;22513;51.222;6.480;2022-07-09T10:16:50;29.20;54.90
36498;DHT22;22513;51.222;6.480;2022-07-09T10:19:26;29.20;54.80
36498;DHT22;22513;51.222;6.480;2022-07-09T10:21:58;29.20;54.80
36498;DHT22;22513;51.222;6.480;2022-07-09T10:24:29;29.30;54.90
36498;DHT22;22513;51.222;6.480;2022-07-09T10:27:06;29.30;54.00
36498;DHT22;22513;51.222;6.480;2022-07-09T10:29:34;29.10;54.50
36498;DHT22;22513;51.222;6.480;2022-07-09T10:31:59;29.00;54.90
36498;DHT22;22513;51.222;6.480;2022-07-09T10:34:49;28.80;55.70
36498;DHT22;22513;51.222;6.480;2022-07-09T10:37:40;28.80;55.90
36498;DHT22;22513;51.222;6.480;2022-07-09T10:42:35;28.90;56.10
36498;DHT22;22513;51.222;6.480;2022-07-09T10:45:02;28.90;56.20
36498;DHT22;22513;51.222;6.480;2022-07-09T10:47:51;28.60;56.30
36498;DHT22;22513;51.222;6.480;2022-07-09T10:50:17;28.50;57.20
36498;DHT22;22513;51.222;6.480;2022-07-09T10:52:43;28.20;58.00
36498;DHT22;22513;51.222;6.480;2022-07-09T10:55:09;28.00;58.50
36498;DHT22;22513;51.222;6.480;2022-07-09T10:57:35;27.90;58.80
36498;DHT22;22513;51.222;6.480;2022-07-09T11:00:01;27.90;58.90
36498;DHT22;22513;51.222;6.480;2022-07-09T11:02:26;27.80;58.50
36498;DHT22;22513;51.222;6.480;2022-07-09T11:04:52;27.80;57.40
36498;DHT22;22513;51.222;6.480;2022-07-09T11:07:20;27.90;57.30
36498;DHT22;22513;51.222;6.480;2022-07-09T11:09:46;28.00;57.60
36498;DHT22;22513;51.222;6.480;2022-07-09T11:12:15;28.20;57.60
36498;DHT22;22513;51.222;6.480;2022-07-09T11:14:49;28.20;57.00
36498;DHT22;22513;51.222;6.480;2022-07-09T11:17:19;28.10;57.80
36498;DHT22;22513;51.222;6.480;2022-07-09T11:19:46;28.00;57.90
36498;DHT22;22513;51.222;6.480;2022-07-09T11:22:12;28.10;58.20
36498;DHT22;22513;51.222;6.480;2022-07-09T11:24:38;28.30;59.10
36498;DHT22;22513;51.222;6.480;2022-07-09T11:27:05;28.50;57.90
36498;DHT22;22513;51.222;6.480;2022-07-09T11:29:32;28.60;57.70
36498;DHT22;22513;51.222;6.480;2022-07-09T11:31:58;28.60;57.80
36498;DHT22;22513;51.222;6.480;2022-07-09T11:34:23;28.70;58.00
36498;DHT22;22513;51.222;6.480;2022-07-09T11:36:54;28.80;58.10
36498;DHT22;22513;51.222;6.480;2022-07-09T11:39:32;28.90;57.90
36498;DHT22;22513;51.222;6.480;2022-07-09T11:42:02;29.10;57.70
36498;DHT22;22513;51.222;6.480;2022-07-09T11:47:09;29.10;57.30
36498;DHT22;22513;51.222;6.480;2022-07-09T11:49:39;28.70;58.00
36498;DHT22;22513;51.222;6.480;2022-07-09T11:52:25;28.30;58.80
36498;DHT22;22513;51.222;6.480;2022-07-09T11:54:58;28.00;59.40
36498;DHT22;22513;51.222;6.480;2022-07-09T11:57:25;27.90;59.60
36498;DHT22;22513;51.222;6.480;2022-07-09T11:59:51;27.80;60.10
36498;DHT22;22513;51.222;6.480;2022-07-09T12:02:34;27.90;60.40
36498;DHT22;22513;51.222;6.480;2022-07-09T12:05:02;28.20;61.00
36498;DHT22;22513;51.222;6.480;2022-07-09T12:07:31;28.40;59.90
36498;DHT22;22513;51.222;6.480;2022-07-09T12:09:59;28.70;59.80
36498;DHT22;22513;51.222;6.480;2022-07-09T12:12:25;28.70;59.50
36498;DHT22;22513;51.222;6.480;2022-07-09T12:14:51;28.50;59.30
36498;DHT22;22513;51.222;6.480;2022-07-09T12:17:23;28.30;59.90
36498;DHT22;22513;51.222;6.480;2022-07-09T12:19:49;28.30;60.70
36498;DHT22;22513;51.222;6.480;2022-07-09T12:22:14;28.30;60.40
36498;DHT22;22513;51.222;6.480;2022-07-09T12:24:40;28.20;60.30
36498;DHT22;22513;51.222;6.480;2022-07-09T12:27:06;27.90;61.30
36498;DHT22;22513;51.222;6.480;2022-07-09T12:29:31;27.50;62.30
36498;DHT22;22513;51.222;6.480;2022-07-09T12:31:57;27.20;64.60
36498;DHT22;22513;51.222;6.480;2022-07-09T12:34:22;26.90;66.80
36498;DHT22;22513;51.222;6.480;2022-07-09T12:36:49;26.70;72.60
36498;DHT22;22513;51.222;6.480;2022-07-09T12:39:14;26.50;73.30
36498;DHT22;22513;51.222;6.480;2022-07-09T12:41:40;26.10;73.60
36498;DHT22;22513;51.222;6.480;2022-07-09T12:44:06;25.80;74.60
36498;DHT22;22513;51.222;6.480;2022-07-09T12:46:31;25.80;74.00
36498;DHT22;22513;51.222;6.480;2022-07-09T12:48:57;25.80;73.70
36498;DHT22;22513;51.222;6.480;2022-07-09T12:51:22;25.80;73.70
36498;DHT22;22513;51.222;6.480;2022-07-09T12:53:48;25.70;73.80
36498;DHT22;22513;51.222;6.480;2022-07-09T12:56:14;25.60;73.60
36498;DHT22;22513;51.222;6.480;2022-07-09T12:58:40;25.40;74.20
36498;DHT22;22513;51.222;6.480;2022-07-09T13:01:05;25.20;74.40
36498;DHT22;22513;51.222;6.480;2022-07-09T13:03:31;25.00;76.00
36498;DHT22;22513;51.222;6.480;2022-07-09T13:05:57;25.00;78.70
36498;DHT22;22513;51.222;6.480;2022-07-09T13:08:22;25.00;78.20
36498;DHT22;22513;51.222;6.480;2022-07-09T13:10:48;25.20;78.30
36498;DHT22;22513;51.222;6.480;2022-07-09T13:13:13;25.60;77.90
36498;DHT22;22513;51.222;6.480;2022-07-09T13:15:40;25.90;74.60
36498;DHT22;22513;51.222;6.480;2022-07-09T13:18:05;26.00;72.20
36498;DHT22;22513;51.222;6.480;2022-07-09T13:20:31;26.10;71.70
36498;DHT22;22513;51.222;6.480;2022-07-09T13:22:57;26.10;70.10
36498;DHT22;22513;51.222;6.480;2022-07-09T13:25:22;25.90;69.50
36498;DHT22;22513;51.222;6.480;2022-07-09T13:27:48;25.80;69.90
36498;DHT22;22513;51.222;6.480;2022-07-09T13:30:13;25.70;69.20
36498;DHT22;22513;51.222;6.480;2022-07-09T13:32:45;25.60;69.30
36498;DHT22;22513;51.222;6.480;2022-07-09T13:35:10;25.80;69.00
36498;DHT22;22513;51.222;6.480;2022-07-09T13:37:36;25.80;68.40
36498;DHT22;22513;51.222;6.480;2022-07-09T13:40:02;25.90;68.40
36498;DHT22;22513;51.222;6.480;2022-07-09T13:42:27;25.90;68.90
36498;DHT22;22513;51.222;6.480;2022-07-09T13:44:54;25.60;70.60
36498;DHT22;22513;51.222;6.480;2022-07-09T13:47:20;25.00;72.10
36498;DHT22;22513;51.222;6.480;2022-07-09T13:49:45;24.60;74.00
36498;DHT22;22513;51.222;6.480;2022-07-09T13:52:11;24.30;74.60
36498;DHT22;22513;51.222;6.480;2022-07-09T13:54:37;24.20;75.00
36498;DHT22;22513;51.222;6.480;2022-07-09T13:57:03;24.10;74.40
36498;DHT22;22513;51.222;6.480;2022-07-09T13:59:28;24.10;74.80
36498;DHT22;22513;51.222;6.480;2022-07-09T14:01:54;24.10;74.50
36498;DHT22;22513;51.222;6.480;2022-07-09T14:04:22;24.20;74.80
36498;DHT22;22513;51.222;6.480;2022-07-09T14:06:49;24.10;74.40
36498;DHT22;22513;51.222;6.480;2022-07-09T14:09:15;24.10;74.40
36498;DHT22;22513;51.222;6.480;2022-07-09T14:11:42;24.00;72.70
36498;DHT22;22513;51.222;6.480;2022-07-09T14:14:07;24.00;72.50
36498;DHT22;22513;51.222;6.480;2022-07-09T14:16:33;24.10;73.00
36498;DHT22;22513;51.222;6.480;2022-07-09T14:18:59;24.30;73.20
36498;DHT22;22513;51.222;6.480;2022-07-09T14:21:25;24.50;72.30
36498;DHT22;22513;51.222;6.480;2022-07-09T14:23:50;24.40;72.20
36498;DHT22;22513;51.222;6.480;2022-07-09T14:26:16;24.30;72.70
36498;DHT22;22513;51.222;6.480;2022-07-09T14:28:42;24.20;73.00
36498;DHT22;22513;51.222;6.480;2022-07-09T14:31:08;24.20;73.10
36498;DHT22;22513;51.222;6.480;2022-07-09T14:33:34;24.20;74.70
36498;DHT22;22513;51.222;6.480;2022-07-09T14:36:00;24.20;72.80
36498;DHT22;22513;51.222;6.480;2022-07-09T14:38:25;24.20;72.50
36498;DHT22;22513;51.222;6.480;2022-07-09T14:40:51;24.30;71.70
36498;DHT22;22513;51.222;6.480;2022-07-09T14:43:17;24.40;70.50
36498;DHT22;22513;51.222;6.480;2022-07-09T14:45:42;24.40;70.50
36498;DHT22;22513;51.222;6.480;2022-07-09T14:48:08;24.40;71.20
36498;DHT22;22513;51.222;6.480;2022-07-09T14:50:35;24.40;70.20
36498;DHT22;22513;51.222;6.480;2022-07-09T14:53:00;24.40;69.40
36498;DHT22;22513;51.222;6.480;2022-07-09T14:55:27;24.30;70.20
36498;DHT22;22513;51.222;6.480;2022-07-09T14:57:54;24.40;70.50
36498;DHT22;22513;51.222;6.480;2022-07-09T15:00:19;24.40;69.10
36498;DHT22;22513;51.222;6.480;2022-07-09T15:02:46;24.50;68.20
36498;DHT22;22513;51.222;6.480;2022-07-09T15:05:11;24.60;68.40
36498;DHT22;22513;51.222;6.480;2022-07-09T15:07:37;24.70;69.00
36498;DHT22;22513;51.222;6.480;2022-07-09T15:10:03;24.60;70.00
36498;DHT22;22513;51.222;6.480;2022-07-09T15:12:29;24.60;69.10
36498;DHT22;22513;51.222;6.480;2022-07-09T15:14:55;24.40;69.00
36498;DHT22;22513;51.222;6.480;2022-07-09T15:17:21;24.20;69.90
36498;DHT22;22513;51.222;6.480;2022-07-09T15:19:47;24.10;69.80
36498;DHT22;22513;51.222;6.480;2022-07-09T15:22:12;23.90;69.90
36498;DHT22;22513;51.222;6.480;2022-07-09T15:24:38;23.70;70.20
36498;DHT22;22513;51.222;6.480;2022-07-09T15:27:04;23.70;72.10
36498;DHT22;22513;51.222;6.480;2022-07-09T15:29:30;23.60;72.10
36498;DHT22;22513;51.222;6.480;2022-07-09T15:31:55;23.50;72.10
36498;DHT22;22513;51.222;6.480;2022-07-09T15:34:22;23.50;72.70